Time;durP1;ratioP1;P1;durP2;ratioP2;P2;SDS_P1;SDS_P2;PMS_P1;PMS_P2;Temp;Humidity;BMP_temperature;BMP_pressure;BME280_temperature;BME280_humidity;BME280_pressure;Samples;Min_cycle;Max_cycle;Signal;HPM_P1;HPM_P2
2022/03/09 00:00:47;;;;;;;36.42;21.23;;;4.30;87.50;;;;;;5050715;28;20052;-56
2022/03/09 00:03:13;;;;;;;36.47;19.95;;;4.00;89.30;;;;;;5051378;28;20104;-56
2022/03/09 00:05:38;;;;;;;36.05;20.65;;;3.70;90.60;;;;;;5051204;28;20018;-56
2022/03/09 00:08:04;;;;;;;38.05;22.55;;;3.50;91.10;;;;;;5051364;28;20025;-56
2022/03/09 00:10:29;;;;;;;38.95;22.55;;;3.40;91.80;;;;;;5051270;28;20092;-56
2022/03/09 00:12:55;;;;;;;36.38;20.92;;;3.40;91.80;;;;;;5051142;28;20033;-56
2022/03/09 00:15:21;;;;;;;32.65;18.85;;;3.30;91.90;;;;;;5050857;28;20029;-56
2022/03/09 00:17:47;;;;;;;33.45;19.52;;;3.20;92.10;;;;;;5051615;28;20029;-56
2022/03/09 00:20:13;;;;;;;35.80;19.58;;;3.10;92.20;;;;;;5053765;28;20024;-56
2022/03/09 00:22:38;;;;;;;33.25;19.35;;;3.20;91.90;;;;;;5054906;28;20529;-56
2022/03/09 00:25:04;;;;;;;30.65;18.40;;;3.30;91.60;;;;;;5055802;28;20027;-56
2022/03/09 00:27:31;;;;;;;37.33;18.83;;;3.30;91.20;;;;;;5055962;28;20445;-57
2022/03/09 00:29:56;;;;;;;37.33;19.08;;;3.40;91.00;;;;;;5054729;28;20063;-57
2022/03/09 00:32:22;;;;;;;30.83;17.70;;;3.50;90.60;;;;;;5054661;28;20036;-57
2022/03/09 00:34:48;;;;;;;33.65;18.75;;;3.60;90.30;;;;;;5053734;28;20333;-57
2022/03/09 00:37:13;;;;;;;33.80;19.48;;;3.70;90.40;;;;;;5054725;28;20021;-56
2022/03/09 00:39:39;;;;;;;34.13;19.83;;;3.70;90.60;;;;;;5054839;28;20025;-56
2022/03/09 00:42:05;;;;;;;33.75;19.80;;;3.60;91.10;;;;;;5054736;28;20366;-57
2022/03/09 00:44:33;;;;;;;32.47;19.17;;;3.60;91.70;;;;;;5055609;28;20064;-56
2022/03/09 00:46:59;;;;;;;31.80;18.83;;;3.60;92.00;;;;;;5053671;28;20029;-57
2022/03/09 00:49:25;;;;;;;33.92;19.98;;;3.40;92.20;;;;;;5054110;28;20389;-56
2022/03/09 00:51:50;;;;;;;35.03;20.98;;;3.20;92.80;;;;;;5054025;28;20036;-57
2022/03/09 00:54:16;;;;;;;36.78;21.40;;;3.10;93.50;;;;;;5054308;28;20039;-56
2022/03/09 00:56:41;;;;;;;35.17;20.45;;;3.00;94.30;;;;;;5052951;28;20393;-56
2022/03/09 00:59:07;;;;;;;33.72;20.20;;;2.90;93.90;;;;;;5053575;28;20300;-56
2022/03/09 01:01:33;;;;;;;37.40;22.40;;;2.90;93.90;;;;;;5052259;28;20032;-56
2022/03/09 01:03:58;;;;;;;43.05;21.52;;;2.80;94.50;;;;;;5053841;28;20076;-56
2022/03/09 01:06:24;;;;;;;36.20;21.30;;;2.90;94.70;;;;;;5053623;28;20027;-56
2022/03/09 01:08:50;;;;;;;43.00;22.05;;;3.20;94.00;;;;;;5053474;28;20067;-56
2022/03/09 01:11:15;;;;;;;37.40;22.02;;;3.20;93.80;;;;;;5054037;28;20462;-56
2022/03/09 01:13:41;;;;;;;42.05;23.38;;;2.90;94.90;;;;;;5053013;28;20021;-56
2022/03/09 01:16:07;;;;;;;39.75;21.77;;;2.50;96.40;;;;;;5053776;28;20029;-56
2022/03/09 01:18:32;;;;;;;37.85;22.38;;;2.20;97.30;;;;;;5052406;28;20056;-56
2022/03/09 01:20:58;;;;;;;40.45;20.13;;;2.30;97.30;;;;;;5053672;28;20457;-56
2022/03/09 01:23:24;;;;;;;35.25;18.80;;;2.40;96.40;;;;;;5053601;28;20033;-56
2022/03/09 01:25:51;;;;;;;35.33;20.73;;;2.60;95.40;;;;;;5054078;28;20017;-56
2022/03/09 01:28:17;;;;;;;31.58;19.25;;;2.80;94.80;;;;;;5053692;28;20024;-56
2022/03/09 01:30:43;;;;;;;36.90;20.75;;;2.90;94.40;;;;;;5052457;28;20171;-56
2022/03/09 01:33:09;;;;;;;32.40;18.15;;;3.00;94.40;;;;;;5054074;28;20470;-56
2022/03/09 01:35:35;;;;;;;36.30;18.85;;;3.00;94.00;;;;;;5052488;28;20020;-56
2022/03/09 01:38:01;;;;;;;34.50;17.98;;;3.10;93.60;;;;;;5052877;28;20491;-57
2022/03/09 01:40:26;;;;;;;33.95;17.98;;;3.20;93.30;;;;;;5052496;28;20079;-57
2022/03/09 01:42:53;;;;;;;30.10;17.40;;;3.20;93.00;;;;;;5053301;28;20036;-57
2022/03/09 01:45:20;;;;;;;29.60;16.52;;;3.40;92.60;;;;;;5054143;28;20033;-57
2022/03/09 01:47:47;;;;;;;28.85;16.17;;;3.60;92.30;;;;;;5053175;28;20028;-57
2022/03/09 01:50:12;;;;;;;29.75;16.60;;;3.60;91.80;;;;;;5051063;28;20033;-57
2022/03/09 01:52:40;;;;;;;29.73;16.70;;;3.70;91.70;;;;;;5052008;28;20029;-57
2022/03/09 01:55:07;;;;;;;29.25;17.33;;;3.70;91.60;;;;;;5052059;28;20117;-57
2022/03/09 01:57:32;;;;;;;26.77;16.42;;;3.80;91.30;;;;;;5053116;28;20060;-57
2022/03/09 01:59:59;;;;;;;27.17;16.75;;;3.80;91.40;;;;;;5052955;28;20055;-57
2022/03/09 02:02:25;;;;;;;26.63;15.02;;;3.80;91.50;;;;;;5053326;28;20036;-57
2022/03/09 02:04:51;;;;;;;26.58;15.25;;;3.80;91.70;;;;;;5053155;28;20033;-57
2022/03/09 02:07:16;;;;;;;28.70;14.98;;;3.80;91.30;;;;;;5052751;28;20430;-57
2022/03/09 02:09:43;;;;;;;28.05;15.43;;;3.80;91.20;;;;;;5051726;28;20040;-57
2022/03/09 02:12:17;;;;;;;27.13;15.30;;;3.90;91.30;;;;;;5053203;28;20546;-57
2022/03/09 02:14:51;;;;;;;28.23;16.27;;;3.90;91.20;;;;;;5052946;28;20592;-57
2022/03/09 02:17:20;;;;;;;26.48;16.02;;;3.80;91.20;;;;;;5052749;28;20064;-57
2022/03/09 02:19:48;;;;;;;25.45;15.35;;;3.80;91.60;;;;;;5051826;28;20021;-57
2022/03/09 02:22:30;;;;;;;26.30;14.55;;;3.80;91.70;;;;;;5053023;28;20388;-57
2022/03/09 02:24:56;;;;;;;26.20;15.93;;;3.80;91.60;;;;;;5051794;28;20393;-57
2022/03/09 02:27:22;;;;;;;29.75;16.08;;;3.80;91.50;;;;;;5052432;28;20027;-57
2022/03/09 02:29:51;;;;;;;29.00;16.08;;;3.80;91.70;;;;;;5052953;28;20143;-57
2022/03/09 02:32:17;;;;;;;29.60;15.80;;;3.70;91.80;;;;;;5052294;28;20039;-57
2022/03/09 02:34:43;;;;;;;28.40;16.55;;;3.60;92.10;;;;;;5052694;28;20025;-57
2022/03/09 02:37:09;;;;;;;27.85;16.00;;;3.50;92.60;;;;;;5052923;28;20035;-57
2022/03/09 02:39:35;;;;;;;33.60;17.80;;;3.50;93.00;;;;;;5052333;28;20028;-57
2022/03/09 02:42:01;;;;;;;30.60;17.08;;;3.30;93.60;;;;;;5051257;28;20128;-57
2022/03/09 02:44:26;;;;;;;30.42;16.35;;;3.10;94.20;;;;;;5051848;28;20100;-57
2022/03/09 02:46:52;;;;;;;33.40;18.13;;;3.00;94.80;;;;;;5052251;28;20098;-57
2022/03/09 02:49:18;;;;;;;31.65;18.58;;;2.90;95.30;;;;;;5051489;28;20482;-57
2022/03/09 02:51:44;;;;;;;30.45;18.45;;;2.90;95.60;;;;;;5051940;28;20379;-57
2022/03/09 02:54:09;;;;;;;34.50;19.42;;;2.80;96.20;;;;;;5052350;28;20029;-57
2022/03/09 02:56:35;;;;;;;39.53;19.60;;;2.70;96.50;;;;;;5052456;28;20025;-57
2022/03/09 02:59:01;;;;;;;33.97;19.33;;;2.70;97.00;;;;;;5051345;28;20030;-57
2022/03/09 03:01:27;;;;;;;32.17;18.23;;;2.50;97.60;;;;;;5052736;28;20021;-57
2022/03/09 03:03:53;;;;;;;32.25;19.13;;;2.40;98.00;;;;;;5051028;28;20032;-56
2022/03/09 03:06:18;;;;;;;34.42;19.73;;;2.40;98.90;;;;;;5052344;28;20394;-57
2022/03/09 03:08:44;;;;;;;33.83;19.35;;;2.30;98.90;;;;;;5052354;28;20436;-59
2022/03/09 03:11:10;;;;;;;36.42;20.25;;;2.30;98.70;;;;;;5052256;28;20021;-57
2022/03/09 03:13:38;;;;;;;39.88;21.92;;;2.30;98.80;;;;;;5052443;28;20056;-56
2022/03/09 03:16:04;;;;;;;42.47;19.35;;;2.30;99.00;;;;;;5052283;28;20032;-57
2022/03/09 03:18:30;;;;;;;35.67;19.67;;;2.30;99.50;;;;;;5050857;28;20021;-57
2022/03/09 03:20:56;;;;;;;38.55;20.73;;;2.20;99.60;;;;;;5051849;28;20071;-57
2022/03/09 03:23:22;;;;;;;33.25;20.33;;;2.20;99.90;;;;;;5051498;28;20051;-57
2022/03/09 03:25:49;;;;;;;35.95;20.83;;;2.20;99.90;;;;;;5052247;28;20025;-57
2022/03/09 03:28:15;;;;;;;32.92;19.30;;;2.40;99.90;;;;;;5050419;28;20082;-57
2022/03/09 03:30:41;;;;;;;39.88;20.33;;;2.40;99.50;;;;;;5051189;28;20378;-57
2022/03/09 03:33:06;;;;;;;36.47;20.17;;;2.30;99.80;;;;;;5049613;28;20055;-57
2022/03/09 03:35:32;;;;;;;33.92;19.63;;;2.20;99.90;;;;;;5051466;28;20454;-57
2022/03/09 03:37:57;;;;;;;32.80;18.85;;;2.20;99.90;;;;;;5051269;28;20017;-57
2022/03/09 03:40:23;;;;;;;32.65;18.25;;;2.10;99.80;;;;;;5051429;28;20391;-57
2022/03/09 03:42:49;;;;;;;33.78;18.35;;;2.10;99.60;;;;;;5051086;28;20509;-57
2022/03/09 03:45:14;;;;;;;34.15;18.23;;;2.00;99.90;;;;;;5051416;28;20493;-57
2022/03/09 03:47:40;;;;;;;30.83;16.85;;;2.00;99.90;;;;;;5051242;28;20361;-57
2022/03/09 03:50:06;;;;;;;30.50;17.23;;;2.10;99.50;;;;;;5051679;28;20112;-57
2022/03/09 03:52:32;;;;;;;30.42;16.80;;;2.30;99.10;;;;;;5051310;28;20482;-57
2022/03/09 03:54:57;;;;;;;34.53;18.63;;;2.30;99.00;;;;;;5054556;28;20017;-57
2022/03/09 03:57:23;;;;;;;33.15;18.33;;;2.20;99.70;;;;;;5054731;28;20033;-57
2022/03/09 03:59:49;;;;;;;31.58;17.98;;;2.10;99.80;;;;;;5054763;28;20048;-57
2022/03/09 04:02:14;;;;;;;29.63;17.73;;;2.20;99.70;;;;;;5053668;28;20397;-57
2022/03/09 04:04:40;;;;;;;35.17;19.90;;;2.20;99.60;;;;;;5055544;28;20426;-57
2022/03/09 04:07:06;;;;;;;31.55;18.85;;;2.10;99.90;;;;;;5054921;28;20115;-57
2022/03/09 04:09:31;;;;;;;42.97;20.60;;;2.10;99.90;;;;;;5053709;28;20025;-57
2022/03/09 04:11:57;;;;;;;34.08;19.63;;;2.10;99.90;;;;;;5054850;28;20017;-57
2022/03/09 04:14:22;;;;;;;33.20;18.10;;;2.10;99.90;;;;;;5054919;28;20021;-57
2022/03/09 04:16:49;;;;;;;33.17;18.92;;;2.10;99.90;;;;;;5054741;28;20049;-57
2022/03/09 04:19:15;;;;;;;37.97;20.27;;;2.10;99.90;;;;;;5054686;28;20096;-57
2022/03/09 04:21:40;;;;;;;32.72;19.65;;;2.10;99.90;;;;;;5055020;28;20060;-57
2022/03/09 04:24:06;;;;;;;42.72;20.00;;;2.00;99.90;;;;;;5055672;28;20094;-57
2022/03/09 04:26:32;;;;;;;31.15;17.48;;;1.90;99.90;;;;;;5053627;28;20029;-57
2022/03/09 04:28:59;;;;;;;33.63;17.23;;;2.00;99.90;;;;;;5054438;28;20490;-57
2022/03/09 04:31:24;;;;;;;31.80;18.23;;;2.20;99.90;;;;;;5052921;28;20053;-57
2022/03/09 04:33:50;;;;;;;30.17;17.67;;;2.20;99.90;;;;;;5054875;28;20025;-57
2022/03/09 04:36:16;;;;;;;33.78;18.33;;;2.10;99.90;;;;;;5053078;28;20470;-57
2022/03/09 04:38:41;;;;;;;36.65;17.88;;;2.10;99.90;;;;;;5054732;28;20029;-57
2022/03/09 04:41:07;;;;;;;32.42;17.23;;;2.20;99.90;;;;;;5053600;28;20032;-57
2022/03/09 04:43:33;;;;;;;33.42;17.35;;;2.20;99.90;;;;;;5054370;28;20522;-57
2022/03/09 04:45:58;;;;;;;30.73;17.33;;;2.30;99.90;;;;;;5054453;28;20033;-57
2022/03/09 04:48:24;;;;;;;29.08;16.08;;;2.30;99.90;;;;;;5052733;28;20033;-57
2022/03/09 04:50:50;;;;;;;29.98;16.95;;;2.30;99.90;;;;;;5054300;28;20029;-57
2022/03/09 04:53:15;;;;;;;32.35;17.13;;;2.30;99.90;;;;;;5054756;28;20478;-57
2022/03/09 04:55:41;;;;;;;31.42;16.85;;;2.20;99.90;;;;;;5054924;28;20029;-57
2022/03/09 04:58:06;;;;;;;30.95;16.40;;;2.30;99.90;;;;;;5054190;28;20104;-57
2022/03/09 05:00:32;;;;;;;36.15;17.10;;;2.20;99.90;;;;;;5054081;28;20052;-57
2022/03/09 05:02:58;;;;;;;28.08;16.73;;;2.20;99.90;;;;;;5053994;28;20154;-57
2022/03/09 05:05:23;;;;;;;32.50;16.75;;;2.30;99.90;;;;;;5053325;28;20021;-57
2022/03/09 05:07:49;;;;;;;29.77;16.00;;;2.40;99.90;;;;;;5053192;28;20025;-57
2022/03/09 05:10:15;;;;;;;27.85;16.20;;;2.50;99.70;;;;;;5053730;28;20037;-57
2022/03/09 05:12:40;;;;;;;31.02;16.80;;;2.60;99.60;;;;;;5053990;28;20112;-57
2022/03/09 05:15:06;;;;;;;29.15;16.17;;;2.60;99.60;;;;;;5053865;28;20071;-57
2022/03/09 05:17:32;;;;;;;30.95;17.25;;;2.60;99.50;;;;;;5052527;28;20029;-57
2022/03/09 05:19:58;;;;;;;29.67;16.25;;;2.50;99.60;;;;;;5053685;28;20474;-57
2022/03/09 05:22:24;;;;;;;34.15;17.52;;;2.60;99.40;;;;;;5053538;28;20544;-57
2022/03/09 05:24:50;;;;;;;29.88;16.90;;;2.60;99.40;;;;;;5053796;28;20032;-57
2022/03/09 05:27:16;;;;;;;33.05;18.23;;;2.60;99.70;;;;;;5053687;28;20036;-57
2022/03/09 05:29:41;;;;;;;32.28;18.63;;;2.50;99.90;;;;;;5053757;28;20084;-57
2022/03/09 05:32:07;;;;;;;30.13;17.45;;;2.50;99.90;;;;;;5053281;28;20409;-57
2022/03/09 05:34:33;;;;;;;29.42;16.50;;;2.40;99.90;;;;;;5052772;28;20100;-57
2022/03/09 05:36:58;;;;;;;30.70;17.35;;;2.40;99.90;;;;;;5053476;28;20032;-57
2022/03/09 05:39:24;;;;;;;32.05;17.65;;;2.40;99.90;;;;;;5053321;28;20048;-57
2022/03/09 05:41:50;;;;;;;30.48;16.35;;;2.30;99.90;;;;;;5053254;28;20021;-56
2022/03/09 05:44:15;;;;;;;30.63;15.98;;;2.30;99.90;;;;;;5053396;28;20033;-56
2022/03/09 05:46:41;;;;;;;31.00;15.70;;;2.30;99.90;;;;;;5053256;28;20112;-56
2022/03/09 05:49:07;;;;;;;31.55;16.30;;;2.40;99.90;;;;;;5053409;28;20024;-56
2022/03/09 05:51:32;;;;;;;33.60;16.90;;;2.40;99.90;;;;;;5052383;28;20032;-56
2022/03/09 05:53:58;;;;;;;30.60;16.23;;;2.40;99.90;;;;;;5051862;28;20073;-56
2022/03/09 05:56:24;;;;;;;27.02;15.90;;;2.30;99.90;;;;;;5052958;28;20033;-57
2022/03/09 05:58:51;;;;;;;30.30;16.77;;;2.30;99.90;;;;;;5051623;28;20536;-56
2022/03/09 06:01:16;;;;;;;29.67;16.40;;;2.30;99.90;;;;;;5052454;28;20453;-56
2022/03/09 06:03:42;;;;;;;29.05;15.65;;;2.20;99.90;;;;;;5053435;28;20032;-57
2022/03/09 06:06:08;;;;;;;28.75;16.05;;;2.30;99.90;;;;;;5052818;28;20037;-56
2022/03/09 06:08:33;;;;;;;30.70;16.08;;;2.30;99.90;;;;;;5052921;28;20025;-56
2022/03/09 06:10:59;;;;;;;31.17;16.25;;;2.40;99.90;;;;;;5051505;28;20120;-56
2022/03/09 06:13:24;;;;;;;35.47;16.98;;;2.40;99.90;;;;;;5052431;28;20031;-56
2022/03/09 06:15:50;;;;;;;32.38;17.83;;;2.40;99.90;;;;;;5050547;28;20063;-57
2022/03/09 06:18:16;;;;;;;31.25;16.77;;;2.30;99.90;;;;;;5052515;28;20017;-56
2022/03/09 06:20:42;;;;;;;37.28;18.05;;;2.30;99.90;;;;;;5052821;28;20074;-56
2022/03/09 06:23:07;;;;;;;34.10;17.95;;;2.20;99.90;;;;;;5051896;28;20436;-58
2022/03/09 06:25:34;;;;;;;32.47;17.45;;;2.20;99.90;;;;;;5052521;28;20028;-57
2022/03/09 06:28:00;;;;;;;32.03;16.50;;;2.20;99.90;;;;;;5052244;28;20048;-56
2022/03/09 06:30:27;;;;;;;30.88;16.83;;;2.30;99.90;;;;;;5052347;28;20021;-56
2022/03/09 06:32:53;;;;;;;35.08;17.67;;;2.30;99.90;;;;;;5052174;28;20135;-56
2022/03/09 06:35:18;;;;;;;34.13;17.08;;;2.30;99.90;;;;;;5051213;28;20009;-55
2022/03/09 06:37:44;;;;;;;34.33;17.08;;;2.30;99.90;;;;;;5051290;28;20021;-55
2022/03/09 06:40:11;;;;;;;39.03;20.10;;;2.40;99.90;;;;;;5052446;28;20025;-55
2022/03/09 06:42:37;;;;;;;37.13;19.17;;;2.50;99.90;;;;;;5051542;28;20397;-56
2022/03/09 06:45:03;;;;;;;32.90;18.00;;;2.50;99.90;;;;;;5038231;28;20030;-56
2022/03/09 06:47:29;;;;;;;36.90;17.65;;;2.60;99.90;;;;;;5043170;28;20029;-56
2022/03/09 06:49:54;;;;;;;36.30;18.00;;;2.60;99.90;;;;;;5037615;28;20406;-56
2022/03/09 06:52:20;;;;;;;30.48;17.38;;;2.70;99.90;;;;;;5036086;28;20083;-56
2022/03/09 06:54:45;;;;;;;33.33;16.73;;;2.70;99.90;;;;;;5042084;28;20718;-57
2022/03/09 06:57:11;;;;;;;31.52;18.17;;;2.80;99.90;;;;;;5044599;28;20076;-56
2022/03/09 06:59:37;;;;;;;30.38;16.58;;;3.00;99.90;;;;;;5043143;28;20028;-57
2022/03/09 07:02:04;;;;;;;34.53;16.75;;;3.00;99.90;;;;;;5035175;28;20037;-57
2022/03/09 07:04:29;;;;;;;34.72;18.35;;;3.10;99.90;;;;;;5035032;28;20121;-56
2022/03/09 07:06:55;;;;;;;54.42;25.17;;;3.20;99.90;;;;;;5039006;28;20120;-56
2022/03/09 07:09:20;;;;;;;53.00;24.35;;;3.20;99.90;;;;;;5037711;28;20089;-57
2022/03/09 07:11:46;;;;;;;45.70;22.98;;;3.20;99.90;;;;;;5039092;28;20029;-56
2022/03/09 07:14:12;;;;;;;40.03;19.25;;;3.30;99.90;;;;;;5037168;28;20032;-56
2022/03/09 07:16:38;;;;;;;37.72;17.13;;;3.40;99.90;;;;;;5036285;28;20093;-56
2022/03/09 07:19:03;;;;;;;40.38;17.98;;;3.50;99.90;;;;;;5031416;28;20057;-56
2022/03/09 07:21:29;;;;;;;39.13;19.08;;;3.60;99.90;;;;;;5033910;28;20045;-56
2022/03/09 07:23:56;;;;;;;35.10;18.17;;;3.60;99.90;;;;;;5033064;28;20057;-58
2022/03/09 07:26:21;;;;;;;35.30;18.10;;;3.80;99.90;;;;;;5033662;28;20056;-56
2022/03/09 07:28:47;;;;;;;39.47;19.48;;;3.90;99.80;;;;;;5052796;28;20063;-56
2022/03/09 07:31:13;;;;;;;35.05;17.98;;;4.00;99.60;;;;;;5040294;28;20340;-56
2022/03/09 07:33:38;;;;;;;33.60;18.83;;;4.20;99.40;;;;;;5048458;28;20021;-56
2022/03/09 07:36:04;;;;;;;39.70;20.92;;;4.30;99.10;;;;;;5053635;28;20091;-57
2022/03/09 07:38:32;;;;;;;37.60;19.10;;;4.30;99.10;;;;;;5050999;28;20067;-57
2022/03/09 07:40:58;;;;;;;34.53;19.33;;;4.40;98.80;;;;;;5051814;28;20082;-57
2022/03/09 07:43:23;;;;;;;39.05;20.38;;;4.60;98.50;;;;;;5044671;28;20037;-57
2022/03/09 07:45:49;;;;;;;41.20;20.42;;;4.70;98.40;;;;;;5048883;28;20032;-57
2022/03/09 07:48:15;;;;;;;34.58;18.73;;;4.60;98.50;;;;;;5044985;28;20533;-57
2022/03/09 07:50:41;;;;;;;34.40;19.42;;;4.60;98.10;;;;;;5047532;28;20045;-57
2022/03/09 07:53:08;;;;;;;36.20;19.33;;;4.70;98.10;;;;;;5046738;28;20485;-57
2022/03/09 07:55:34;;;;;;;35.00;19.02;;;4.70;98.30;;;;;;5046116;28;20060;-57
2022/03/09 07:58:00;;;;;;;38.40;19.50;;;4.80;98.40;;;;;;5052967;28;20040;-56
2022/03/09 08:00:27;;;;;;;34.65;18.92;;;4.90;98.30;;;;;;5046549;28;20036;-56
2022/03/09 08:02:53;;;;;;;40.47;18.33;;;4.90;98.40;;;;;;5051003;28;20017;-57
2022/03/09 08:05:18;;;;;;;38.28;20.70;;;5.10;97.70;;;;;;5045811;28;20116;-57
2022/03/09 08:07:47;;;;;;;41.08;20.05;;;5.20;97.70;;;;;;5053413;28;20464;-57
2022/03/09 08:10:13;;;;;;;39.17;20.67;;;5.30;97.60;;;;;;5048512;28;20082;-57
2022/03/09 08:12:39;;;;;;;44.47;20.65;;;5.40;97.10;;;;;;5054758;28;20044;-56
2022/03/09 08:15:05;;;;;;;41.33;20.75;;;5.50;97.10;;;;;;5047780;28;20115;-57
2022/03/09 08:17:31;;;;;;;42.92;21.08;;;5.50;97.40;;;;;;5052609;28;20070;-56
2022/03/09 08:19:57;;;;;;;65.60;23.15;;;5.80;97.10;;;;;;5050231;28;20033;-56
2022/03/09 08:22:22;;;;;;;43.58;21.30;;;6.70;95.80;;;;;;5047072;28;20036;-56
2022/03/09 08:24:49;;;;;;;35.28;19.50;;;7.90;94.00;;;;;;5052846;28;20540;-56
2022/03/09 08:27:14;;;;;;;40.00;21.50;;;8.70;91.80;;;;;;5047232;28;20029;-56
2022/03/09 08:29:40;;;;;;;41.75;21.02;;;9.30;91.00;;;;;;5048125;28;20498;-56
2022/03/09 08:32:06;;;;;;;40.70;20.95;;;9.80;90.10;;;;;;5049666;28;20059;-56
2022/03/09 08:34:31;;;;;;;40.03;21.83;;;10.50;88.90;;;;;;5047192;28;20511;-56
2022/03/09 08:36:57;;;;;;;35.88;21.63;;;11.20;85.60;;;;;;5051291;28;20024;-56
2022/03/09 08:39:23;;;;;;;41.75;22.48;;;11.40;83.70;;;;;;5047510;28;20493;-57
2022/03/09 08:41:49;;;;;;;37.45;20.35;;;11.70;82.80;;;;;;5053780;28;20025;-57
2022/03/09 08:44:16;;;;;;;42.17;23.73;;;11.80;81.80;;;;;;5053516;28;20978;-57
2022/03/09 08:46:42;;;;;;;36.25;21.23;;;11.40;82.80;;;;;;5056800;28;20037;-57
2022/03/09 08:49:07;;;;;;;39.08;21.60;;;11.50;81.60;;;;;;5053526;28;20118;-57
2022/03/09 08:51:33;;;;;;;34.47;21.30;;;11.80;80.80;;;;;;5054639;28;20032;-57
2022/03/09 08:53:59;;;;;;;35.70;20.30;;;11.40;80.80;;;;;;5052570;28;20025;-56
2022/03/09 08:56:27;;;;;;;37.58;21.67;;;11.10;81.20;;;;;;5051114;28;20025;-57
2022/03/09 08:58:53;;;;;;;42.67;20.75;;;11.20;81.70;;;;;;5051142;28;20028;-56
2022/03/09 09:01:19;;;;;;;35.47;19.52;;;11.10;81.90;;;;;;5051277;28;20029;-56
2022/03/09 09:03:45;;;;;;;36.00;21.55;;;11.30;81.10;;;;;;5054397;28;20024;-56
2022/03/09 09:06:10;;;;;;;38.35;22.13;;;11.30;81.50;;;;;;5052361;28;20017;-56
2022/03/09 09:08:36;;;;;;;33.67;20.10;;;12.00;80.70;;;;;;5052636;28;20490;-56
2022/03/09 09:11:01;;;;;;;35.25;20.92;;;12.40;78.10;;;;;;5053391;28;20025;-58
2022/03/09 09:13:27;;;;;;;37.17;20.55;;;11.90;78.00;;;;;;5054842;28;20119;-58
2022/03/09 09:15:53;;;;;;;39.55;21.70;;;11.90;79.30;;;;;;5055727;28;20060;-58
2022/03/09 09:18:18;;;;;;;39.08;21.13;;;12.10;79.20;;;;;;5052685;28;20038;-57
2022/03/09 09:20:44;;;;;;;37.20;21.58;;;12.00;79.10;;;;;;5054613;28;20077;-59
2022/03/09 09:23:10;;;;;;;36.15;21.98;;;12.10;79.50;;;;;;5052670;28;20078;-57
2022/03/09 09:25:36;;;;;;;39.72;23.27;;;12.40;79.00;;;;;;5052034;28;20564;-57
2022/03/09 09:28:02;;;;;;;39.05;21.17;;;12.60;78.40;;;;;;5051247;28;20120;-58
2022/03/09 09:30:30;;;;;;;38.58;23.05;;;12.90;79.20;;;;;;5046338;28;20457;-58
2022/03/09 09:32:55;;;;;;;36.47;21.80;;;13.40;78.20;;;;;;5050286;28;20028;-58
2022/03/09 09:35:21;;;;;;;36.30;21.33;;;13.80;75.80;;;;;;5048459;28;20115;-58
2022/03/09 09:37:47;;;;;;;35.60;21.27;;;13.30;77.00;;;;;;5045372;28;20104;-57
2022/03/09 09:40:14;;;;;;;35.10;21.48;;;13.20;78.70;;;;;;5048318;28;20065;-57
2022/03/09 09:42:40;;;;;;;34.03;21.35;;;13.60;77.00;;;;;;5048758;28;20119;-58
2022/03/09 09:45:07;;;;;;;36.45;21.55;;;13.40;76.90;;;;;;5047396;28;20028;-57
2022/03/09 09:47:33;;;;;;;34.90;21.35;;;13.00;78.60;;;;;;5044477;28;20032;-57
2022/03/09 09:50:01;;;;;;;36.30;20.77;;;13.20;79.10;;;;;;5051170;28;20032;-58
2022/03/09 09:52:28;;;;;;;33.50;20.88;;;13.50;78.60;;;;;;5049387;28;20517;-57
2022/03/09 09:54:56;;;;;;;41.97;22.83;;;13.70;78.70;;;;;;5047313;28;20025;-57
2022/03/09 09:57:22;;;;;;;38.33;22.55;;;13.70;77.90;;;;;;5047348;28;20548;-58
2022/03/09 09:59:49;;;;;;;35.97;21.27;;;13.80;77.30;;;;;;5049689;28;20394;-58
2022/03/09 10:02:15;;;;;;;38.47;21.00;;;13.50;77.70;;;;;;5049617;28;20044;-57
2022/03/09 10:04:41;;;;;;;36.38;22.02;;;13.70;78.60;;;;;;5053502;28;20033;-58
2022/03/09 10:07:08;;;;;;;36.50;22.55;;;13.80;77.50;;;;;;5046804;28;20091;-58
2022/03/09 10:09:38;;;;;;;41.15;21.98;;;13.80;78.70;;;;;;5048822;28;20716;-58
2022/03/09 10:12:06;;;;;;;38.28;22.85;;;13.90;78.00;;;;;;5051527;28;20028;-58
2022/03/09 10:14:50;;;;;;;40.22;23.75;;;14.30;79.20;;;;;;5052938;28;20501;-58
2022/03/09 10:17:30;;;;;;;43.97;23.38;;;14.40;76.70;;;;;;5048228;28;20025;-58
2022/03/09 10:20:06;;;;;;;35.15;21.52;;;14.60;77.10;;;;;;5045660;28;20028;-58
2022/03/09 10:22:33;;;;;;;37.35;22.35;;;14.30;77.70;;;;;;5046394;28;20028;-57
2022/03/09 10:25:15;;;;;;;35.47;21.48;;;14.50;78.00;;;;;;5049041;28;20021;-57
2022/03/09 10:27:46;;;;;;;;;;;14.80;76.80;;;;;;5050103;28;20550;-58
2022/03/09 10:30:20;;;;;;;39.60;22.77;;;15.00;76.60;;;;;;5043736;28;19958;-57
2022/03/09 10:32:49;;;;;;;37.80;22.23;;;14.80;77.20;;;;;;5045494;28;20489;-57
2022/03/09 10:35:31;;;;;;;37.30;21.75;;;14.80;77.00;;;;;;5049552;28;20021;-57
2022/03/09 10:38:20;;;;;;;38.78;21.95;;;15.30;76.60;;;;;;5052173;28;20016;-57
2022/03/09 10:40:52;;;;;;;36.08;21.40;;;15.60;76.00;;;;;;5055542;28;20111;-58
2022/03/09 10:43:24;;;;;;;38.88;22.98;;;15.70;75.70;;;;;;5049426;28;20087;-57
2022/03/09 10:46:01;;;;;;;38.05;22.23;;;16.00;75.60;;;;;;5050413;28;20513;-58
2022/03/09 10:48:49;;;;;;;34.30;21.65;;;16.10;75.80;;;;;;5049392;28;20709;-58
2022/03/09 10:51:53;;;;;;;33.28;22.65;;;16.20;76.90;;;;;;5052331;28;20025;-58
2022/03/09 10:54:27;;;;;;;34.50;22.15;;;16.20;74.30;;;;;;5007911;28;20059;-58
2022/03/09 10:57:12;;;;;;;34.88;21.38;;;16.80;74.30;;;;;;5012102;28;20573;-58
2022/03/09 10:59:48;;;;;;;35.55;23.35;;;16.70;73.90;;;;;;5031281;28;20041;-58
2022/03/09 11:02:19;;;;;;;33.50;21.20;;;16.60;73.20;;;;;;5046412;28;20043;-58
2022/03/09 11:05:09;;;;;;;36.05;20.40;;;16.60;73.40;;;;;;5049596;28;20791;-57
2022/03/09 11:07:37;;;;;;;33.85;20.90;;;16.40;74.60;;;;;;5050967;28;20726;-57
2022/03/09 11:10:08;;;;;;;32.20;21.17;;;16.30;74.30;;;;;;5049899;28;20402;-57
2022/03/09 11:12:38;;;;;;;35.97;21.73;;;16.20;75.30;;;;;;5053823;28;20036;-57
2022/03/09 11:15:04;;;;;;;33.30;20.73;;;16.80;74.90;;;;;;5045953;28;20025;-57
2022/03/09 11:17:30;;;;;;;34.13;22.33;;;17.00;73.60;;;;;;5056563;28;20441;-57
2022/03/09 11:19:56;;;;;;;37.17;21.48;;;17.00;74.00;;;;;;5051830;28;20029;-57
2022/03/09 11:22:22;;;;;;;35.33;22.40;;;17.00;73.90;;;;;;5054274;28;20251;-57
2022/03/09 11:24:48;;;;;;;36.17;21.45;;;17.00;73.40;;;;;;5050118;28;20040;-58
2022/03/09 11:27:16;;;;;;;38.35;24.08;;;16.90;73.50;;;;;;5043957;28;20029;-58
2022/03/09 11:29:42;;;;;;;38.58;22.48;;;17.10;73.00;;;;;;5058562;28;20012;-57
2022/03/09 11:32:11;;;;;;;35.42;23.52;;;17.20;73.00;;;;;;5061156;28;20040;-57
2022/03/09 12:08:10;;;;;;;33.25;21.40;;;17.60;74.40;;;;;;5148592;27;20374;-57
2022/03/09 12:10:50;;;;;;;30.67;20.67;;;19.10;70.20;;;;;;5148766;27;20054;-57
2022/03/09 12:13:44;;;;;;;30.92;20.95;;;18.70;71.20;;;;;;5148436;27;20027;-57
2022/03/09 12:16:23;;;;;;;31.77;21.10;;;18.70;71.40;;;;;;5140437;27;20040;-57
2022/03/09 12:19:00;;;;;;;33.65;22.33;;;18.80;70.50;;;;;;5127856;28;20565;-57
2022/03/09 12:21:26;;;;;;;44.42;23.05;;;18.60;70.80;;;;;;5127927;28;20062;-57
2022/03/09 12:24:20;;;;;;;32.17;20.55;;;18.50;72.00;;;;;;5127587;28;20059;-57
2022/03/09 12:26:47;;;;;;;32.22;20.60;;;18.60;71.30;;;;;;5127945;28;20022;-57
2022/03/09 12:29:24;;;;;;;38.70;23.13;;;18.50;71.50;;;;;;5123830;28;20421;-58
2022/03/09 12:32:02;;;;;;;34.28;21.92;;;18.50;71.60;;;;;;5107181;28;20030;-58
2022/03/09 12:34:31;;;;;;;36.60;21.75;;;18.80;71.60;;;;;;5106988;28;20024;-58
2022/03/09 12:36:58;;;;;;;29.65;20.85;;;19.10;71.00;;;;;;5107444;28;20053;-58
2022/03/09 12:39:23;;;;;;;31.02;20.20;;;19.10;70.80;;;;;;5106929;28;20026;-58
2022/03/09 12:41:54;;;;;;;53.85;23.17;;;19.10;71.10;;;;;;5106966;28;20103;-58
2022/03/09 12:44:24;;;;;;;31.23;20.02;;;18.80;71.30;;;;;;5106846;28;20020;-58
2022/03/09 12:46:52;;;;;;;30.58;19.88;;;19.10;71.70;;;;;;5106819;28;20027;-58
2022/03/09 12:49:40;;;;;;;32.90;21.45;;;19.30;70.20;;;;;;5106695;28;20523;-58
2022/03/09 12:52:14;;;;;;;32.03;20.55;;;19.50;70.20;;;;;;5106937;28;20439;-58
2022/03/09 12:54:45;;;;;;;39.25;22.05;;;19.90;70.50;;;;;;5106445;28;20020;-58
2022/03/09 12:57:16;;;;;;;37.00;22.05;;;19.80;71.00;;;;;;5106772;28;20145;-58
2022/03/09 12:59:52;;;;;;;46.72;23.42;;;19.90;69.70;;;;;;5122394;28;20019;-58
2022/03/09 13:02:18;;;;;;;37.80;23.17;;;20.20;70.20;;;;;;5106597;28;20098;-58
2022/03/09 13:04:53;;;;;;;35.63;23.73;;;20.50;70.10;;;;;;5106647;28;20146;-58
2022/03/09 13:07:18;;;;;;;33.60;23.33;;;20.30;68.20;;;;;;5101265;28;20059;-58